sensor_id;sensor_type;location;lat;lon;timestamp;pressure;altitude;pressure_sealevel;temperature;humidity
8920;BME280;4495;42.644;23.274;2024-03-02T00:00:00;92399.19;;;5.58;80.08
8920;BME280;4495;42.644;23.274;2024-03-02T00:02:25;92406.03;;;5.62;79.75
8920;BME280;4495;42.644;23.274;2024-03-02T00:04:51;92412.44;;;5.65;79.55
8920;BME280;4495;42.644;23.274;2024-03-02T00:07:17;92419.81;;;5.58;79.75
8920;BME280;4495;42.644;23.274;2024-03-02T00:09:43;92415.91;;;5.69;80.13
8920;BME280;4495;42.644;23.274;2024-03-02T00:12:11;92424.41;;;5.70;79.39
8920;BME280;4495;42.644;23.274;2024-03-02T00:14:41;92427.31;;;5.86;79.21
8920;BME280;4495;42.644;23.274;2024-03-02T00:17:13;92425.66;;;5.90;79.19
8920;BME280;4495;42.644;23.274;2024-03-02T00:19:41;92427.44;;;5.80;78.41
8920;BME280;4495;42.644;23.274;2024-03-02T00:22:07;92426.22;;;5.69;79.07
8920;BME280;4495;42.644;23.274;2024-03-02T00:24:34;92421.97;;;5.73;78.65
8920;BME280;4495;42.644;23.274;2024-03-02T00:27:01;92427.75;;;5.70;79.67
8920;BME280;4495;42.644;23.274;2024-03-02T00:29:29;92421.41;;;5.76;78.93
8920;BME280;4495;42.644;23.274;2024-03-02T00:31:54;92420.78;;;5.79;80.00
8920;BME280;4495;42.644;23.274;2024-03-02T00:34:21;92420.66;;;5.93;79.55
8920;BME280;4495;42.644;23.274;2024-03-02T00:36:47;92415.47;;;5.84;79.62
8920;BME280;4495;42.644;23.274;2024-03-02T00:39:15;92417.03;;;6.03;79.63
8920;BME280;4495;42.644;23.274;2024-03-02T00:41:42;92414.16;;;6.04;79.19
8920;BME280;4495;42.644;23.274;2024-03-02T00:44:09;92410.66;;;6.09;78.18
8920;BME280;4495;42.644;23.274;2024-03-02T00:46:38;92412.19;;;6.10;78.45
8920;BME280;4495;42.644;23.274;2024-03-02T00:49:10;92415.69;;;5.97;80.04
8920;BME280;4495;42.644;23.274;2024-03-02T00:51:37;92405.34;;;6.06;79.55
8920;BME280;4495;42.644;23.274;2024-03-02T00:54:05;92409.75;;;6.22;79.24
8920;BME280;4495;42.644;23.274;2024-03-02T00:56:32;92412.94;;;6.19;78.53
8920;BME280;4495;42.644;23.274;2024-03-02T00:58:58;92417.66;;;6.26;78.69
8920;BME280;4495;42.644;23.274;2024-03-02T01:01:23;92417.94;;;6.24;77.99
8920;BME280;4495;42.644;23.274;2024-03-02T01:03:49;92418.56;;;6.13;78.28
8920;BME280;4495;42.644;23.274;2024-03-02T01:06:15;92419.94;;;6.19;79.54
8920;BME280;4495;42.644;23.274;2024-03-02T01:08:41;92416.44;;;6.23;79.18
8920;BME280;4495;42.644;23.274;2024-03-02T01:11:07;92412.94;;;6.11;79.26
8920;BME280;4495;42.644;23.274;2024-03-02T01:13:32;92409.44;;;6.15;80.62
8920;BME280;4495;42.644;23.274;2024-03-02T01:15:58;92408.38;;;6.16;80.68
8920;BME280;4495;42.644;23.274;2024-03-02T01:18:24;92400.13;;;5.79;80.58
8920;BME280;4495;42.644;23.274;2024-03-02T01:20:49;92403.69;;;6.01;80.46
8920;BME280;4495;42.644;23.274;2024-03-02T01:23:20;92402.25;;;5.77;80.70
8920;BME280;4495;42.644;23.274;2024-03-02T01:25:47;92388.13;;;5.66;82.66
8920;BME280;4495;42.644;23.274;2024-03-02T01:28:13;92391.47;;;5.67;82.42
8920;BME280;4495;42.644;23.274;2024-03-02T01:30:38;92395.69;;;5.62;81.46
8920;BME280;4495;42.644;23.274;2024-03-02T01:33:04;92391.66;;;5.88;82.04
8920;BME280;4495;42.644;23.274;2024-03-02T01:35:31;92386.22;;;5.98;81.23
8920;BME280;4495;42.644;23.274;2024-03-02T01:37:57;92388.63;;;6.12;80.33
8920;BME280;4495;42.644;23.274;2024-03-02T01:40:22;92384.25;;;6.12;80.72
8920;BME280;4495;42.644;23.274;2024-03-02T01:42:52;92382.25;;;6.09;81.14
8920;BME280;4495;42.644;23.274;2024-03-02T01:45:19;92378.31;;;6.03;80.74
8920;BME280;4495;42.644;23.274;2024-03-02T01:47:44;92382.13;;;6.06;81.11
8920;BME280;4495;42.644;23.274;2024-03-02T01:50:11;92381.66;;;6.12;81.76
8920;BME280;4495;42.644;23.274;2024-03-02T01:52:36;92380.28;;;5.97;81.09
8920;BME280;4495;42.644;23.274;2024-03-02T01:55:02;92380.44;;;6.10;80.08
8920;BME280;4495;42.644;23.274;2024-03-02T01:57:29;92388.63;;;6.20;80.36
8920;BME280;4495;42.644;23.274;2024-03-02T01:59:55;92382.25;;;6.27;81.14
8920;BME280;4495;42.644;23.274;2024-03-02T02:02:20;92377.25;;;6.30;80.26
8920;BME280;4495;42.644;23.274;2024-03-02T02:04:46;92384.38;;;6.24;80.73
8920;BME280;4495;42.644;23.274;2024-03-02T02:07:12;92382.09;;;6.23;81.97
8920;BME280;4495;42.644;23.274;2024-03-02T02:09:40;92385.75;;;6.31;80.09
8920;BME280;4495;42.644;23.274;2024-03-02T02:12:05;92382.38;;;6.39;80.66
8920;BME280;4495;42.644;23.274;2024-03-02T02:14:32;92379.81;;;6.39;80.43
8920;BME280;4495;42.644;23.274;2024-03-02T02:16:57;92381.03;;;6.33;81.12
8920;BME280;4495;42.644;23.274;2024-03-02T02:19:22;92383.75;;;6.45;80.51
8920;BME280;4495;42.644;23.274;2024-03-02T02:21:48;92379.06;;;6.30;79.82
8920;BME280;4495;42.644;23.274;2024-03-02T02:24:13;92384.84;;;6.27;80.56
8920;BME280;4495;42.644;23.274;2024-03-02T02:26:39;92376.34;;;6.35;79.66
8920;BME280;4495;42.644;23.274;2024-03-02T02:29:04;92380.88;;;6.47;79.62
8920;BME280;4495;42.644;23.274;2024-03-02T02:31:40;92387.69;;;6.51;80.00
8920;BME280;4495;42.644;23.274;2024-03-02T02:34:06;92369.16;;;6.40;79.58
8920;BME280;4495;42.644;23.274;2024-03-02T02:36:34;92376.63;;;6.51;79.02
8920;BME280;4495;42.644;23.274;2024-03-02T02:39:03;92378.13;;;6.43;79.02
8920;BME280;4495;42.644;23.274;2024-03-02T02:41:30;92376.00;;;6.45;79.48
8920;BME280;4495;42.644;23.274;2024-03-02T02:43:56;92390.44;;;6.46;80.11
8920;BME280;4495;42.644;23.274;2024-03-02T02:46:21;92373.69;;;6.52;79.90
8920;BME280;4495;42.644;23.274;2024-03-02T02:48:47;92384.19;;;6.56;79.20
8920;BME280;4495;42.644;23.274;2024-03-02T02:51:12;92383.28;;;6.52;79.03
8920;BME280;4495;42.644;23.274;2024-03-02T02:53:38;92380.22;;;6.58;78.97
8920;BME280;4495;42.644;23.274;2024-03-02T02:56:06;92389.97;;;6.53;79.03
8920;BME280;4495;42.644;23.274;2024-03-02T02:58:31;92387.81;;;6.63;78.77
8920;BME280;4495;42.644;23.274;2024-03-02T03:00:57;92385.09;;;6.69;79.18
8920;BME280;4495;42.644;23.274;2024-03-02T03:03:22;92380.19;;;6.76;79.28
8920;BME280;4495;42.644;23.274;2024-03-02T03:05:48;92379.91;;;6.69;78.31
8920;BME280;4495;42.644;23.274;2024-03-02T03:08:14;92380.09;;;6.55;78.48
8920;BME280;4495;42.644;23.274;2024-03-02T03:10:41;92382.53;;;6.51;79.01
8920;BME280;4495;42.644;23.274;2024-03-02T03:13:06;92384.69;;;6.32;79.34
8920;BME280;4495;42.644;23.274;2024-03-02T03:15:34;92387.25;;;6.40;79.58
8920;BME280;4495;42.644;23.274;2024-03-02T03:18:00;92385.28;;;6.37;79.57
8920;BME280;4495;42.644;23.274;2024-03-02T03:20:25;92378.91;;;6.35;80.30
8920;BME280;4495;42.644;23.274;2024-03-02T03:22:50;92380.13;;;6.37;79.31
8920;BME280;4495;42.644;23.274;2024-03-02T03:25:16;92376.63;;;6.33;79.79
8920;BME280;4495;42.644;23.274;2024-03-02T03:27:41;92385.88;;;6.43;80.56
8920;BME280;4495;42.644;23.274;2024-03-02T03:30:07;92384.38;;;6.51;79.24
8920;BME280;4495;42.644;23.274;2024-03-02T03:32:32;92388.44;;;6.52;79.90
8920;BME280;4495;42.644;23.274;2024-03-02T03:34:58;92381.13;;;6.62;78.83
8920;BME280;4495;42.644;23.274;2024-03-02T03:37:23;92389.19;;;6.61;79.02
8920;BME280;4495;42.644;23.274;2024-03-02T03:39:50;92384.00;;;6.70;79.41
8920;BME280;4495;42.644;23.274;2024-03-02T03:42:16;92382.97;;;6.53;78.47
8920;BME280;4495;42.644;23.274;2024-03-02T03:44:42;92381.50;;;6.17;80.65
8920;BME280;4495;42.644;23.274;2024-03-02T03:47:07;92382.56;;;6.34;79.54
8920;BME280;4495;42.644;23.274;2024-03-02T03:49:32;92384.38;;;6.42;80.25
8920;BME280;4495;42.644;23.274;2024-03-02T03:51:58;92387.13;;;6.11;80.82
8920;BME280;4495;42.644;23.274;2024-03-02T03:54:23;92390.16;;;6.21;81.64
8920;BME280;4495;42.644;23.274;2024-03-02T03:56:49;92383.94;;;6.22;81.48
8920;BME280;4495;42.644;23.274;2024-03-02T03:59:14;92379.53;;;5.97;81.36
8920;BME280;4495;42.644;23.274;2024-03-02T04:01:40;92387.09;;;5.84;82.45
8920;BME280;4495;42.644;23.274;2024-03-02T04:04:05;92390.00;;;6.00;82.45
8920;BME280;4495;42.644;23.274;2024-03-02T04:06:30;92389.41;;;5.95;81.95
8920;BME280;4495;42.644;23.274;2024-03-02T04:08:56;92391.53;;;6.01;82.57
8920;BME280;4495;42.644;23.274;2024-03-02T04:11:21;92385.31;;;6.02;81.41
8920;BME280;4495;42.644;23.274;2024-03-02T04:13:47;92384.53;;;6.02;82.71
8920;BME280;4495;42.644;23.274;2024-03-02T04:16:12;92383.13;;;5.78;81.59
8920;BME280;4495;42.644;23.274;2024-03-02T04:18:38;92382.59;;;5.99;82.19
8920;BME280;4495;42.644;23.274;2024-03-02T04:21:04;92381.34;;;6.05;81.70
8920;BME280;4495;42.644;23.274;2024-03-02T04:23:30;92378.00;;;6.13;81.54
8920;BME280;4495;42.644;23.274;2024-03-02T04:25:55;92382.56;;;6.16;80.81
8920;BME280;4495;42.644;23.274;2024-03-02T04:28:21;92381.97;;;6.19;81.14
8920;BME280;4495;42.644;23.274;2024-03-02T04:30:46;92384.84;;;6.18;80.78
8920;BME280;4495;42.644;23.274;2024-03-02T04:33:11;92379.84;;;6.21;80.69
8920;BME280;4495;42.644;23.274;2024-03-02T04:35:37;92391.53;;;6.10;81.02
8920;BME280;4495;42.644;23.274;2024-03-02T04:38:03;92384.66;;;5.88;82.14
8920;BME280;4495;42.644;23.274;2024-03-02T04:40:28;92382.41;;;5.95;82.40
8920;BME280;4495;42.644;23.274;2024-03-02T04:42:53;92388.63;;;6.03;82.35
8920;BME280;4495;42.644;23.274;2024-03-02T04:45:19;92392.00;;;6.12;82.92
8920;BME280;4495;42.644;23.274;2024-03-02T04:47:44;92390.00;;;6.18;81.24
8920;BME280;4495;42.644;23.274;2024-03-02T04:50:10;92390.47;;;6.29;80.94
8920;BME280;4495;42.644;23.274;2024-03-02T04:52:35;92382.25;;;6.27;81.26
8920;BME280;4495;42.644;23.274;2024-03-02T04:55:01;92392.41;;;6.32;82.15
8920;BME280;4495;42.644;23.274;2024-03-02T04:57:42;92393.03;;;6.37;81.15
8920;BME280;4495;42.644;23.274;2024-03-02T05:00:09;92392.41;;;6.40;80.81
8920;BME280;4495;42.644;23.274;2024-03-02T05:02:34;92392.72;;;6.39;82.04
8920;BME280;4495;42.644;23.274;2024-03-02T05:05:00;92388.91;;;6.45;81.41
8920;BME280;4495;42.644;23.274;2024-03-02T05:07:26;92392.41;;;6.40;81.50
8920;BME280;4495;42.644;23.274;2024-03-02T05:09:51;92394.88;;;6.28;81.49
8920;BME280;4495;42.644;23.274;2024-03-02T05:12:17;92396.09;;;6.22;81.33
8920;BME280;4495;42.644;23.274;2024-03-02T05:14:42;92395.91;;;6.18;82.64
8920;BME280;4495;42.644;23.274;2024-03-02T05:17:08;92396.38;;;6.20;81.49
8920;BME280;4495;42.644;23.274;2024-03-02T05:19:33;92401.41;;;6.08;83.34
8920;BME280;4495;42.644;23.274;2024-03-02T05:21:59;92401.41;;;6.17;83.10
8920;BME280;4495;42.644;23.274;2024-03-02T05:24:24;92403.34;;;5.94;82.89
8920;BME280;4495;42.644;23.274;2024-03-02T05:26:52;92408.81;;;5.92;82.81
8920;BME280;4495;42.644;23.274;2024-03-02T05:29:18;92412.47;;;6.00;83.87
8920;BME280;4495;42.644;23.274;2024-03-02T05:31:44;92415.53;;;6.02;83.63
8920;BME280;4495;42.644;23.274;2024-03-02T05:34:09;92418.06;;;5.93;84.52
8920;BME280;4495;42.644;23.274;2024-03-02T05:36:35;92421.25;;;5.90;84.58
8920;BME280;4495;42.644;23.274;2024-03-02T05:39:00;92423.97;;;5.85;84.12
8920;BME280;4495;42.644;23.274;2024-03-02T05:41:26;92428.59;;;5.97;83.36
8920;BME280;4495;42.644;23.274;2024-03-02T05:43:52;92426.16;;;6.09;84.96
8920;BME280;4495;42.644;23.274;2024-03-02T05:46:17;92425.69;;;6.16;85.34
8920;BME280;4495;42.644;23.274;2024-03-02T05:48:42;92435.56;;;6.22;84.53
8920;BME280;4495;42.644;23.274;2024-03-02T05:51:08;92432.69;;;6.33;83.26
8920;BME280;4495;42.644;23.274;2024-03-02T05:53:33;92431.63;;;6.42;83.88
8920;BME280;4495;42.644;23.274;2024-03-02T05:55:59;92437.25;;;6.53;83.60
8920;BME280;4495;42.644;23.274;2024-03-02T05:58:24;92433.72;;;6.58;82.15
8920;BME280;4495;42.644;23.274;2024-03-02T06:01:08;92427.50;;;6.59;82.24
8920;BME280;4495;42.644;23.274;2024-03-02T06:03:34;92432.22;;;6.48;81.63
8920;BME280;4495;42.644;23.274;2024-03-02T06:05:59;92436.63;;;6.48;82.48
8920;BME280;4495;42.644;23.274;2024-03-02T06:08:24;92439.06;;;6.35;83.82
8920;BME280;4495;42.644;23.274;2024-03-02T06:10:50;92429.94;;;6.38;82.86
8920;BME280;4495;42.644;23.274;2024-03-02T06:13:15;92436.78;;;6.42;82.49
8920;BME280;4495;42.644;23.274;2024-03-02T06:15:41;92437.41;;;6.48;83.61
8920;BME280;4495;42.644;23.274;2024-03-02T06:18:06;92441.19;;;6.59;82.03
8920;BME280;4495;42.644;23.274;2024-03-02T06:20:33;92442.84;;;6.55;83.01
8920;BME280;4495;42.644;23.274;2024-03-02T06:22:58;92439.19;;;6.65;83.26
8920;BME280;4495;42.644;23.274;2024-03-02T06:25:24;92434.47;;;6.76;83.82
8920;BME280;4495;42.644;23.274;2024-03-02T06:27:49;92441.44;;;6.84;82.75
8920;BME280;4495;42.644;23.274;2024-03-02T06:30:14;92436.59;;;6.74;82.80
8920;BME280;4495;42.644;23.274;2024-03-02T06:32:40;92447.22;;;6.81;81.94
8920;BME280;4495;42.644;23.274;2024-03-02T06:35:06;92449.50;;;6.82;82.50
8920;BME280;4495;42.644;23.274;2024-03-02T06:37:34;92449.63;;;6.86;81.43
8920;BME280;4495;42.644;23.274;2024-03-02T06:39:59;92450.25;;;6.83;83.53
8920;BME280;4495;42.644;23.274;2024-03-02T06:42:24;92445.72;;;6.71;81.88
8920;BME280;4495;42.644;23.274;2024-03-02T06:44:50;92448.63;;;6.61;82.99
8920;BME280;4495;42.644;23.274;2024-03-02T06:47:15;92451.81;;;6.58;82.52
8920;BME280;4495;42.644;23.274;2024-03-02T06:49:42;92455.78;;;6.55;83.30
8920;BME280;4495;42.644;23.274;2024-03-02T06:52:07;92452.75;;;6.44;82.59
8920;BME280;4495;42.644;23.274;2024-03-02T06:54:33;92455.94;;;6.41;83.41
8920;BME280;4495;42.644;23.274;2024-03-02T06:57:00;92454.72;;;6.30;83.57
8920;BME280;4495;42.644;23.274;2024-03-02T06:59:25;92453.19;;;6.29;83.46
8920;BME280;4495;42.644;23.274;2024-03-02T07:01:50;92458.19;;;6.34;83.98
8920;BME280;4495;42.644;23.274;2024-03-02T07:04:16;92458.06;;;6.48;82.50
8920;BME280;4495;42.644;23.274;2024-03-02T07:06:41;92463.53;;;6.55;82.27
8920;BME280;4495;42.644;23.274;2024-03-02T07:09:07;92462.59;;;6.60;82.45
8920;BME280;4495;42.644;23.274;2024-03-02T07:11:36;92461.41;;;6.49;81.65
8920;BME280;4495;42.644;23.274;2024-03-02T07:14:01;92463.38;;;6.60;82.85
8920;BME280;4495;42.644;23.274;2024-03-02T07:16:27;92466.84;;;6.64;82.86
8920;BME280;4495;42.644;23.274;2024-03-02T07:18:58;92473.69;;;6.69;81.58
8920;BME280;4495;42.644;23.274;2024-03-02T07:21:24;92464.44;;;6.59;82.07
8920;BME280;4495;42.644;23.274;2024-03-02T07:23:49;92466.56;;;6.66;81.86
8920;BME280;4495;42.644;23.274;2024-03-02T07:26:15;92466.53;;;6.75;80.64
8920;BME280;4495;42.644;23.274;2024-03-02T07:28:43;92474.91;;;6.80;81.80
8920;BME280;4495;42.644;23.274;2024-03-02T07:31:09;92476.38;;;6.90;82.10
8920;BME280;4495;42.644;23.274;2024-03-02T07:33:35;92475.34;;;6.91;80.75
8920;BME280;4495;42.644;23.274;2024-03-02T07:36:00;92484.47;;;6.97;80.86
8920;BME280;4495;42.644;23.274;2024-03-02T07:38:27;92484.09;;;7.16;79.54
8920;BME280;4495;42.644;23.274;2024-03-02T07:40:53;92482.06;;;7.31;78.55
8920;BME280;4495;42.644;23.274;2024-03-02T07:43:19;92471.72;;;7.31;79.71
8920;BME280;4495;42.644;23.274;2024-03-02T07:45:48;92489.06;;;7.39;78.64
8920;BME280;4495;42.644;23.274;2024-03-02T07:48:14;92478.13;;;7.33;78.79
8920;BME280;4495;42.644;23.274;2024-03-02T07:50:40;92488.34;;;7.21;79.25
8920;BME280;4495;42.644;23.274;2024-03-02T07:53:05;92485.50;;;7.52;78.73
8920;BME280;4495;42.644;23.274;2024-03-02T07:55:32;92483.34;;;7.63;78.72
8920;BME280;4495;42.644;23.274;2024-03-02T07:57:58;92492.16;;;7.62;79.21
8920;BME280;4495;42.644;23.274;2024-03-02T08:00:24;92483.34;;;7.63;77.90
8920;BME280;4495;42.644;23.274;2024-03-02T08:02:51;92483.00;;;7.64;78.60
8920;BME280;4495;42.644;23.274;2024-03-02T08:05:17;92495.16;;;7.73;77.69
8920;BME280;4495;42.644;23.274;2024-03-02T08:07:44;92496.34;;;7.75;78.12
8920;BME280;4495;42.644;23.274;2024-03-02T08:10:10;92498.66;;;7.77;77.63
8920;BME280;4495;42.644;23.274;2024-03-02T08:12:36;92502.75;;;7.78;77.99
8920;BME280;4495;42.644;23.274;2024-03-02T08:15:01;92499.28;;;7.74;78.31
8920;BME280;4495;42.644;23.274;2024-03-02T08:17:27;92503.53;;;7.78;78.54
8920;BME280;4495;42.644;23.274;2024-03-02T08:19:53;92491.91;;;7.46;78.67
8920;BME280;4495;42.644;23.274;2024-03-02T08:22:19;92494.84;;;7.74;77.41
8920;BME280;4495;42.644;23.274;2024-03-02T08:24:44;92492.78;;;7.88;77.58
8920;BME280;4495;42.644;23.274;2024-03-02T08:27:10;92491.41;;;7.91;77.63
8920;BME280;4495;42.644;23.274;2024-03-02T08:29:37;92497.19;;;7.67;78.84
8920;BME280;4495;42.644;23.274;2024-03-02T08:32:03;92495.31;;;7.76;77.62
8920;BME280;4495;42.644;23.274;2024-03-02T08:34:28;92493.13;;;7.87;77.32
8920;BME280;4495;42.644;23.274;2024-03-02T08:36:53;92496.28;;;7.93;78.00
8920;BME280;4495;42.644;23.274;2024-03-02T08:39:19;92497.88;;;8.06;78.13
8920;BME280;4495;42.644;23.274;2024-03-02T08:41:46;92487.72;;;8.22;77.22
8920;BME280;4495;42.644;23.274;2024-03-02T08:44:13;92485.13;;;8.22;77.58
8920;BME280;4495;42.644;23.274;2024-03-02T08:46:39;92495.44;;;8.30;77.65
8920;BME280;4495;42.644;23.274;2024-03-02T08:49:05;92500.06;;;7.95;77.31
8920;BME280;4495;42.644;23.274;2024-03-02T08:51:31;92490.75;;;8.03;78.03
8920;BME280;4495;42.644;23.274;2024-03-02T08:53:57;92499.13;;;8.00;76.40
8920;BME280;4495;42.644;23.274;2024-03-02T08:56:23;92495.34;;;7.97;77.44
8920;BME280;4495;42.644;23.274;2024-03-02T08:58:49;92495.94;;;8.03;76.13
8920;BME280;4495;42.644;23.274;2024-03-02T09:01:15;92499.75;;;8.26;76.64
8920;BME280;4495;42.644;23.274;2024-03-02T09:03:42;92496.91;;;8.19;75.90
8920;BME280;4495;42.644;23.274;2024-03-02T09:06:11;92504.41;;;8.42;75.62
8920;BME280;4495;42.644;23.274;2024-03-02T09:08:37;92509.97;;;8.23;75.94
8920;BME280;4495;42.644;23.274;2024-03-02T09:11:04;92504.66;;;8.19;76.27
8920;BME280;4495;42.644;23.274;2024-03-02T09:13:30;92511.09;;;7.83;76.84
8920;BME280;4495;42.644;23.274;2024-03-02T09:15:56;92508.09;;;8.02;76.64
8920;BME280;4495;42.644;23.274;2024-03-02T09:18:21;92516.03;;;7.67;77.99
8920;BME280;4495;42.644;23.274;2024-03-02T09:20:47;92517.19;;;7.87;77.78
8920;BME280;4495;42.644;23.274;2024-03-02T09:23:12;92517.41;;;8.03;77.61
8920;BME280;4495;42.644;23.274;2024-03-02T09:25:38;92519.91;;;8.21;77.22
8920;BME280;4495;42.644;23.274;2024-03-02T09:28:03;92522.84;;;8.31;76.90
8920;BME280;4495;42.644;23.274;2024-03-02T09:30:29;92523.59;;;8.41;76.41
8920;BME280;4495;42.644;23.274;2024-03-02T09:32:54;92517.28;;;8.50;75.99
8920;BME280;4495;42.644;23.274;2024-03-02T09:35:20;92522.88;;;8.61;75.26
8920;BME280;4495;42.644;23.274;2024-03-02T09:37:45;92523.22;;;8.51;75.67
8920;BME280;4495;42.644;23.274;2024-03-02T09:40:12;92523.88;;;8.48;75.67
8920;BME280;4495;42.644;23.274;2024-03-02T09:42:38;92529.16;;;8.51;76.61
8920;BME280;4495;42.644;23.274;2024-03-02T09:45:05;92523.91;;;8.60;77.06
8920;BME280;4495;42.644;23.274;2024-03-02T09:47:30;92526.91;;;8.50;75.00
8920;BME280;4495;42.644;23.274;2024-03-02T09:49:56;92527.53;;;8.38;76.95
8920;BME280;4495;42.644;23.274;2024-03-02T09:52:25;92531.28;;;8.28;75.73
8920;BME280;4495;42.644;23.274;2024-03-02T09:54:51;92532.28;;;8.36;76.37
8920;BME280;4495;42.644;23.274;2024-03-02T09:57:16;92527.53;;;8.17;76.57
8920;BME280;4495;42.644;23.274;2024-03-02T09:59:42;92526.41;;;8.27;76.88
8920;BME280;4495;42.644;23.274;2024-03-02T10:02:07;92522.41;;;8.29;76.84
8920;BME280;4495;42.644;23.274;2024-03-02T10:04:33;92518.13;;;8.33;76.12
8920;BME280;4495;42.644;23.274;2024-03-02T10:09:37;92530.31;;;8.33;77.28
8920;BME280;4495;42.644;23.274;2024-03-02T10:12:06;92528.63;;;8.37;76.01
8920;BME280;4495;42.644;23.274;2024-03-02T10:14:32;92528.38;;;8.30;75.95
8920;BME280;4495;42.644;23.274;2024-03-02T10:17:05;92531.75;;;8.22;76.96
8920;BME280;4495;42.644;23.274;2024-03-02T10:19:31;92527.84;;;8.16;76.29
8920;BME280;4495;42.644;23.274;2024-03-02T10:22:08;92524.38;;;7.73;77.39
8920;BME280;4495;42.644;23.274;2024-03-02T10:24:43;92532.84;;;7.53;78.21
8920;BME280;4495;42.644;23.274;2024-03-02T10:29:47;92529.31;;;7.96;77.15
8920;BME280;4495;42.644;23.274;2024-03-02T10:32:13;92524.88;;;7.58;78.07
8920;BME280;4495;42.644;23.274;2024-03-02T10:34:43;92525.41;;;7.42;80.87
8920;BME280;4495;42.644;23.274;2024-03-02T10:37:14;92525.75;;;7.32;79.33
8920;BME280;4495;42.644;23.274;2024-03-02T10:39:40;92521.31;;;7.41;79.25
8920;BME280;4495;42.644;23.274;2024-03-02T10:42:06;92518.31;;;7.22;81.22
8920;BME280;4495;42.644;23.274;2024-03-02T10:44:33;92526.06;;;7.22;81.59
8920;BME280;4495;42.644;23.274;2024-03-02T10:47:04;92513.63;;;7.06;83.09
8920;BME280;4495;42.644;23.274;2024-03-02T10:49:30;92516.47;;;7.31;82.64
8920;BME280;4495;42.644;23.274;2024-03-02T10:51:58;92510.53;;;7.22;81.58
8920;BME280;4495;42.644;23.274;2024-03-02T10:54:23;92513.41;;;7.38;81.84
8920;BME280;4495;42.644;23.274;2024-03-02T10:56:53;92511.38;;;7.52;80.64
8920;BME280;4495;42.644;23.274;2024-03-02T10:59:36;92511.69;;;7.50;81.00
8920;BME280;4495;42.644;23.274;2024-03-02T11:02:05;92508.63;;;7.57;81.67
8920;BME280;4495;42.644;23.274;2024-03-02T11:04:34;92503.78;;;7.56;80.51
8920;BME280;4495;42.644;23.274;2024-03-02T11:07:03;92505.53;;;7.64;81.22
8920;BME280;4495;42.644;23.274;2024-03-02T11:09:29;92506.19;;;7.61;80.79
8920;BME280;4495;42.644;23.274;2024-03-02T11:12:09;92508.00;;;7.60;80.61
8920;BME280;4495;42.644;23.274;2024-03-02T11:14:40;92506.44;;;7.68;80.64
8920;BME280;4495;42.644;23.274;2024-03-02T11:17:09;92506.91;;;7.70;80.23
8920;BME280;4495;42.644;23.274;2024-03-02T11:19:38;92504.34;;;7.61;80.13
8920;BME280;4495;42.644;23.274;2024-03-02T11:22:05;92504.00;;;7.72;80.59
8920;BME280;4495;42.644;23.274;2024-03-02T11:24:31;92502.34;;;7.67;80.45
8920;BME280;4495;42.644;23.274;2024-03-02T11:27:06;92497.06;;;7.55;80.70
8920;BME280;4495;42.644;23.274;2024-03-02T11:32:16;92503.47;;;7.87;80.43
8920;BME280;4495;42.644;23.274;2024-03-02T11:34:46;92496.31;;;7.84;80.17
8920;BME280;4495;42.644;23.274;2024-03-02T11:37:13;92489.16;;;7.89;79.45
8920;BME280;4495;42.644;23.274;2024-03-02T11:39:40;92500.00;;;7.83;79.32
8920;BME280;4495;42.644;23.274;2024-03-02T11:42:06;92499.94;;;7.91;79.59
8920;BME280;4495;42.644;23.274;2024-03-02T11:44:35;92499.38;;;7.86;79.39
8920;BME280;4495;42.644;23.274;2024-03-02T11:47:02;92498.72;;;7.89;79.69
8920;BME280;4495;42.644;23.274;2024-03-02T11:52:15;92498.16;;;7.83;79.56
8920;BME280;4495;42.644;23.274;2024-03-02T11:54:46;92493.06;;;7.96;79.78
8920;BME280;4495;42.644;23.274;2024-03-02T11:57:13;92502.16;;;8.02;80.59
8920;BME280;4495;42.644;23.274;2024-03-02T11:59:39;92498.13;;;7.62;79.83
8920;BME280;4495;42.644;23.274;2024-03-02T12:02:06;92493.13;;;7.87;80.08
8920;BME280;4495;42.644;23.274;2024-03-02T12:04:31;92498.22;;;7.96;80.12
8920;BME280;4495;42.644;23.274;2024-03-02T12:06:58;92495.19;;;7.94;79.87
8920;BME280;4495;42.644;23.274;2024-03-02T12:09:30;92497.94;;;7.97;78.07
8920;BME280;4495;42.644;23.274;2024-03-02T12:12:06;92503.56;;;7.99;79.37
8920;BME280;4495;42.644;23.274;2024-03-02T12:14:33;92501.38;;;8.10;79.60
8920;BME280;4495;42.644;23.274;2024-03-02T12:16:58;92494.66;;;8.09;79.69
8920;BME280;4495;42.644;23.274;2024-03-02T12:19:25;92494.41;;;8.23;78.40
8920;BME280;4495;42.644;23.274;2024-03-02T12:21:52;92499.38;;;8.37;78.16
8920;BME280;4495;42.644;23.274;2024-03-02T12:24:18;92503.03;;;8.36;77.57
8920;BME280;4495;42.644;23.274;2024-03-02T12:26:44;92497.22;;;8.39;77.06
8920;BME280;4495;42.644;23.274;2024-03-02T12:29:10;92496.31;;;8.43;76.89
8920;BME280;4495;42.644;23.274;2024-03-02T12:31:35;92493.66;;;8.52;76.86
8920;BME280;4495;42.644;23.274;2024-03-02T12:34:02;92500.53;;;8.69;75.53
8920;BME280;4495;42.644;23.274;2024-03-02T12:36:28;92487.06;;;8.76;76.08
8920;BME280;4495;42.644;23.274;2024-03-02T12:38:53;92491.75;;;8.94;75.04
8920;BME280;4495;42.644;23.274;2024-03-02T12:41:20;92493.00;;;9.09;74.33
8920;BME280;4495;42.644;23.274;2024-03-02T12:43:46;92493.44;;;9.11;73.99
8920;BME280;4495;42.644;23.274;2024-03-02T12:46:12;92500.91;;;9.13;74.55
8920;BME280;4495;42.644;23.274;2024-03-02T12:48:37;92498.63;;;9.11;75.75
8920;BME280;4495;42.644;23.274;2024-03-02T12:51:06;92498.69;;;9.24;75.03
8920;BME280;4495;42.644;23.274;2024-03-02T12:53:31;92500.63;;;9.27;75.12
8920;BME280;4495;42.644;23.274;2024-03-02T12:55:58;92494.47;;;9.31;74.94
8920;BME280;4495;42.644;23.274;2024-03-02T12:58:23;92509.06;;;9.24;74.43
8920;BME280;4495;42.644;23.274;2024-03-02T13:00:49;92498.03;;;9.39;74.54
8920;BME280;4495;42.644;23.274;2024-03-02T13:03:14;92507.25;;;9.49;73.62
8920;BME280;4495;42.644;23.274;2024-03-02T13:05:48;92503.66;;;9.29;73.74
8920;BME280;4495;42.644;23.274;2024-03-02T13:08:14;92507.41;;;8.86;74.72
8920;BME280;4495;42.644;23.274;2024-03-02T13:10:40;92507.25;;;9.03;74.34
8920;BME280;4495;42.644;23.274;2024-03-02T13:13:06;92506.19;;;9.04;75.79
8920;BME280;4495;42.644;23.274;2024-03-02T13:15:33;92501.31;;;9.03;75.57
8920;BME280;4495;42.644;23.274;2024-03-02T13:17:59;92506.91;;;8.92;75.77
8920;BME280;4495;42.644;23.274;2024-03-02T13:20:30;92512.41;;;8.91;75.15
8920;BME280;4495;42.644;23.274;2024-03-02T13:22:57;92508.97;;;8.99;75.71
8920;BME280;4495;42.644;23.274;2024-03-02T13:25:22;92508.78;;;9.04;74.64
8920;BME280;4495;42.644;23.274;2024-03-02T13:27:47;92504.78;;;9.07;74.79